createdAt,value
2022-08-07T00:01:44.731Z,17.50
2022-08-07T00:04:15.631Z,15.47
2022-08-07T00:06:51.732Z,12.00
2022-08-07T00:09:22.262Z,32.97
2022-08-07T00:11:55.373Z,15.63
2022-08-07T00:14:30.103Z,15.93
2022-08-07T00:16:58.885Z,14.60
2022-08-07T00:19:59.657Z,19.00
2022-08-07T00:22:24.398Z,18.27
2022-08-07T00:25:02.820Z,17.53
2022-08-07T00:27:51.651Z,14.87
2022-08-07T00:30:21.659Z,16.37
2022-08-07T00:32:56.385Z,16.40
2022-08-07T00:35:25.573Z,18.60
2022-08-07T00:37:54.440Z,22.53
2022-08-07T00:40:40.192Z,16.00
2022-08-07T00:43:12.868Z,12.03
2022-08-07T00:45:58.792Z,13.27
2022-08-07T00:48:32.060Z,16.33
2022-08-07T00:51:00.864Z,12.57
2022-08-07T00:53:38.647Z,15.10
2022-08-07T00:56:16.514Z,14.70
2022-08-07T00:58:46.879Z,15.10
2022-08-07T01:01:20.475Z,15.63
2022-08-07T01:03:56.583Z,16.53
2022-08-07T01:06:27.988Z,16.63
2022-08-07T01:08:58.376Z,13.60
2022-08-07T01:12:23.797Z,14.93
2022-08-07T01:14:16.604Z,21.13
2022-08-07T01:16:47.406Z,15.60
2022-08-07T01:19:18.740Z,14.10
2022-08-07T01:21:53.265Z,20.83
2022-08-07T01:24:25.512Z,15.50
2022-08-07T01:26:54.939Z,16.13
2022-08-07T01:29:27.979Z,20.00
2022-08-07T01:32:00.191Z,17.63
2022-08-07T01:34:31.943Z,16.73
2022-08-07T01:37:05.879Z,22.40
2022-08-07T01:39:41.399Z,18.60
2022-08-07T01:42:58.693Z,21.77
2022-08-07T01:45:36.133Z,14.90
2022-08-07T01:48:18.425Z,19.60
2022-08-07T01:50:55.582Z,15.37
2022-08-07T01:54:08.727Z,19.70
2022-08-07T01:56:17.797Z,18.87
2022-08-07T01:58:58.231Z,27.83
2022-08-07T02:02:02.297Z,27.10
2022-08-07T02:04:20.530Z,21.10
2022-08-07T02:06:58.509Z,18.13
2022-08-07T02:09:51.581Z,19.83
2022-08-07T02:12:19.310Z,19.37
2022-08-07T02:14:58.671Z,18.50
2022-08-07T02:17:49.799Z,19.27
2022-08-07T02:20:23.869Z,18.67
2022-08-07T02:22:59.742Z,17.37
2022-08-07T02:26:10.906Z,18.33
2022-08-07T02:28:24.703Z,17.67
2022-08-07T02:30:56.162Z,17.70
2022-08-07T02:33:24.395Z,19.50
2022-08-07T02:36:30.820Z,18.70
2022-08-07T02:38:57.120Z,17.57
2022-08-07T02:41:37.006Z,16.20
2022-08-07T02:44:05.873Z,17.40
2022-08-07T02:46:36.865Z,18.10
2022-08-07T02:49:05.457Z,25.03
2022-08-07T02:51:42.848Z,16.00
2022-08-07T02:54:21.505Z,16.30
2022-08-07T02:56:55.127Z,17.83
2022-08-07T02:59:27.702Z,19.37
2022-08-07T03:02:02.257Z,21.10
2022-08-07T03:04:30.983Z,12.97
2022-08-07T03:07:03.434Z,21.27
2022-08-07T03:09:43.512Z,17.33
2022-08-07T03:12:22.401Z,17.60
2022-08-07T03:15:07.738Z,17.17
2022-08-07T03:17:53.380Z,14.57
2022-08-07T03:20:22.979Z,15.50
2022-08-07T03:22:51.717Z,16.83
2022-08-07T03:25:21.125Z,17.40
2022-08-07T03:27:59.061Z,15.63
2022-08-07T03:30:28.193Z,15.13
2022-08-07T03:32:58.573Z,22.10
2022-08-07T03:35:37.983Z,14.33
2022-08-07T03:38:13.317Z,14.87
2022-08-07T03:40:44.348Z,16.60
2022-08-07T03:43:16.180Z,18.33
2022-08-07T03:45:49.278Z,15.40
2022-08-07T03:48:22.703Z,14.63
2022-08-07T03:50:56.101Z,18.93
2022-08-07T03:54:01.694Z,15.17
2022-08-07T03:56:33.245Z,16.47
2022-08-07T03:59:09.748Z,14.67
2022-08-07T04:01:45.162Z,15.93
2022-08-07T04:04:17.451Z,19.27
2022-08-07T04:06:50.905Z,17.23
2022-08-07T04:09:23.348Z,16.83
2022-08-07T04:12:24.946Z,20.37
2022-08-07T04:14:46.104Z,14.67
2022-08-07T04:17:21.519Z,19.70
2022-08-07T04:19:54.423Z,14.00
2022-08-07T04:22:27.530Z,15.40
2022-08-07T04:25:01.433Z,16.70
2022-08-07T04:27:35.396Z,15.10
2022-08-07T04:30:21.584Z,16.73
2022-08-07T04:33:02.174Z,17.90
2022-08-07T04:35:36.108Z,14.80
2022-08-07T04:38:08.730Z,17.20
2022-08-07T04:40:44.052Z,16.93
2022-08-07T04:44:10.626Z,15.17
2022-08-07T04:46:34.302Z,13.57
2022-08-07T04:49:18.119Z,20.50
2022-08-07T04:51:59.036Z,15.20
2022-08-07T04:54:33.357Z,16.50
2022-08-07T04:58:14.632Z,15.87
2022-08-07T05:00:13.163Z,20.57
2022-08-07T05:02:51.757Z,22.07
2022-08-07T05:05:53.929Z,21.00
2022-08-07T05:08:16.699Z,15.83
2022-08-07T05:10:48.510Z,14.50
2022-08-07T05:14:53.752Z,16.30
2022-08-07T05:16:09.046Z,17.80
2022-08-07T05:18:42.302Z,17.20
2022-08-07T05:21:11.602Z,17.23
2022-08-07T05:23:46.924Z,17.60
2022-08-07T05:26:23.565Z,17.17
2022-08-07T05:28:56.253Z,20.53
2022-08-07T05:31:35.330Z,18.07
2022-08-07T05:34:11.840Z,18.33
2022-08-07T05:36:44.523Z,18.20
2022-08-07T05:40:05.938Z,17.30
2022-08-07T05:42:33.827Z,18.80
2022-08-07T05:45:25.838Z,21.77
2022-08-07T05:48:02.585Z,21.10
2022-08-07T05:50:43.018Z,21.27
2022-08-07T05:54:12.226Z,26.27
2022-08-07T05:56:03.177Z,18.17
2022-08-07T05:58:37.701Z,18.93
2022-08-07T06:01:11.540Z,17.27
2022-08-07T06:03:56.503Z,16.50
2022-08-07T06:06:29.996Z,25.50
2022-08-07T06:09:04.787Z,20.40
2022-08-07T06:11:34.039Z,14.67
2022-08-07T06:14:11.762Z,17.40
2022-08-07T06:16:45.480Z,17.00
2022-08-07T06:19:47.904Z,13.90
2022-08-07T06:22:15.158Z,19.60
2022-08-07T06:24:57.701Z,12.97
2022-08-07T06:28:00.185Z,11.83
2022-08-07T06:30:32.215Z,17.23
2022-08-07T06:33:03.748Z,11.03
2022-08-07T06:35:45.648Z,15.23
2022-08-07T06:38:21.027Z,13.23
2022-08-07T06:40:52.885Z,15.63
2022-08-07T06:43:22.652Z,11.37
2022-08-07T06:46:12.222Z,13.10
2022-08-07T06:48:41.793Z,15.23
2022-08-07T06:51:30.920Z,12.47
2022-08-07T06:55:29.150Z,12.83
2022-08-07T06:56:52.855Z,16.27
2022-08-07T07:00:13.187Z,10.10
2022-08-07T07:02:53.679Z,15.50
2022-08-07T07:05:13.026Z,10.83
2022-08-07T07:07:59.623Z,9.13
2022-08-07T07:10:31.418Z,11.17
2022-08-07T07:13:03.207Z,10.73
2022-08-07T07:15:36.041Z,8.67
2022-08-07T07:18:09.473Z,9.67
2022-08-07T07:20:39.387Z,11.53
2022-08-07T07:24:08.909Z,13.63
2022-08-07T07:26:31.670Z,7.73
2022-08-07T07:29:56.586Z,7.60
2022-08-07T07:31:46.813Z,8.20
2022-08-07T07:34:18.969Z,13.40
2022-08-07T07:36:47.821Z,8.07
2022-08-07T07:39:22.026Z,7.13
2022-08-07T07:42:12.875Z,9.40
2022-08-07T07:44:42.246Z,6.93
2022-08-07T07:47:22.679Z,7.57
2022-08-07T07:50:34.442Z,6.43
2022-08-07T07:52:40.910Z,6.20
2022-08-07T07:55:11.477Z,9.17
2022-08-07T07:57:52.361Z,9.10
2022-08-07T08:00:29.904Z,7.60
2022-08-07T08:03:06.816Z,12.57
2022-08-07T08:05:54.207Z,10.63
2022-08-07T08:08:35.087Z,8.90
2022-08-07T08:11:05.629Z,7.83
2022-08-07T08:13:54.592Z,8.60
2022-08-07T08:16:29.881Z,10.70
2022-08-07T08:19:00.453Z,8.37
2022-08-07T08:22:03.165Z,6.57
2022-08-07T08:25:03.239Z,6.90
2022-08-07T08:27:37.892Z,6.10
2022-08-07T08:30:09.475Z,6.90
2022-08-07T08:32:49.002Z,9.47
2022-08-07T08:35:20.418Z,7.60
2022-08-07T08:38:01.446Z,6.53
2022-08-07T08:40:34.166Z,5.63
2022-08-07T08:43:05.326Z,6.17
2022-08-07T08:45:42.038Z,6.27
2022-08-07T08:48:38.235Z,5.23
2022-08-07T08:51:14.713Z,4.97
2022-08-07T08:54:02.717Z,4.33
2022-08-07T08:56:34.710Z,6.50
2022-08-07T08:59:12.992Z,6.23
2022-08-07T09:01:46.571Z,5.40
2022-08-07T09:04:26.134Z,6.67
2022-08-07T09:07:03.284Z,6.07
2022-08-07T09:09:48.121Z,6.33
2022-08-07T09:12:52.965Z,6.00
2022-08-07T09:16:21.525Z,5.77
2022-08-07T09:18:37.161Z,5.67
2022-08-07T09:21:58.189Z,6.03
2022-08-07T09:24:30.993Z,6.50
2022-08-07T09:26:57.289Z,5.90
2022-08-07T09:30:05.593Z,4.70
2022-08-07T09:32:26.293Z,6.90
2022-08-07T09:36:04.082Z,7.53
2022-08-07T09:38:00.488Z,7.00
2022-08-07T09:40:31.590Z,6.13
2022-08-07T09:43:03.158Z,13.97
2022-08-07T09:47:25.943Z,5.60
2022-08-07T09:49:09.486Z,5.87
2022-08-07T09:52:15.800Z,6.57
2022-08-07T09:54:47.175Z,7.03
2022-08-07T09:58:05.042Z,7.10
2022-08-07T10:00:42.212Z,6.33
2022-08-07T10:04:05.602Z,4.50
2022-08-07T10:06:32.994Z,5.60
2022-08-07T10:09:15.426Z,9.57
2022-08-07T10:12:01.806Z,7.10
2022-08-07T10:14:55.163Z,7.60
2022-08-07T10:18:01.002Z,4.23
2022-08-07T10:20:39.264Z,5.20
2022-08-07T10:24:06.925Z,5.27
2022-08-07T10:26:29.629Z,6.40
2022-08-07T10:29:09.319Z,4.93
2022-08-07T10:31:50.822Z,7.80
2022-08-07T10:34:33.586Z,7.33
2022-08-07T10:37:12.713Z,5.40
2022-08-07T10:40:05.287Z,6.20
2022-08-07T10:42:41.688Z,6.33
2022-08-07T10:45:19.582Z,10.20
2022-08-07T10:48:15.662Z,5.63
2022-08-07T10:50:50.403Z,6.27
2022-08-07T10:53:26.777Z,8.30
2022-08-07T10:56:02.341Z,5.93
2022-08-07T10:58:47.443Z,4.50
2022-08-07T11:01:23.831Z,6.90
2022-08-07T11:04:11.063Z,5.53
2022-08-07T11:06:51.554Z,6.60
2022-08-07T11:10:07.861Z,5.50
2022-08-07T11:12:32.034Z,5.00
2022-08-07T11:15:04.203Z,5.03
2022-08-07T11:17:46.262Z,8.80
2022-08-07T11:20:18.872Z,6.53
2022-08-07T11:22:53.966Z,6.87
2022-08-07T11:25:24.921Z,4.87
2022-08-07T11:28:01.269Z,4.10
2022-08-07T11:30:39.355Z,4.63
2022-08-07T11:33:15.819Z,6.27
2022-08-07T11:35:59.674Z,6.23
2022-08-07T11:38:33.104Z,4.63
2022-08-07T11:41:05.679Z,5.50
2022-08-07T11:44:10.758Z,4.70
2022-08-07T11:46:38.111Z,4.70
2022-08-07T11:49:50.015Z,5.20
2022-08-07T11:52:29.435Z,6.73
2022-08-07T11:55:18.720Z,6.00
2022-08-07T11:58:13.227Z,5.53
2022-08-07T12:01:02.208Z,5.37
2022-08-07T12:03:47.950Z,5.90
2022-08-07T12:06:38.901Z,4.40
2022-08-07T12:09:16.509Z,6.07
2022-08-07T12:12:10.352Z,5.23
2022-08-07T12:14:55.593Z,6.00
2022-08-07T12:17:34.279Z,6.60
2022-08-07T12:20:20.946Z,6.17
2022-08-07T12:23:14.451Z,8.80
2022-08-07T12:26:22.056Z,6.17
2022-08-07T12:28:44.892Z,6.20
2022-08-07T12:31:22.319Z,13.57
2022-08-07T12:34:00.858Z,5.70
2022-08-07T12:36:33.199Z,5.77
2022-08-07T12:39:41.184Z,8.10
2022-08-07T12:41:53.293Z,4.70
2022-08-07T12:44:21.642Z,4.97
2022-08-07T12:47:06.344Z,7.13
2022-08-07T12:49:44.254Z,6.13
2022-08-07T12:52:34.089Z,6.03
2022-08-07T12:55:05.493Z,6.77
2022-08-07T12:58:01.414Z,6.27
2022-08-07T13:00:36.045Z,7.07
2022-08-07T13:03:59.303Z,5.73
2022-08-07T13:07:00.695Z,4.93
2022-08-07T13:10:20.869Z,14.13
2022-08-07T13:12:38.921Z,5.40
2022-08-07T13:15:15.265Z,5.10
2022-08-07T13:17:59.944Z,4.77
2022-08-07T13:20:41.041Z,6.47
2022-08-07T13:24:01.536Z,5.90
2022-08-07T13:26:04.469Z,5.23
2022-08-07T13:28:38.386Z,5.30
2022-08-07T13:31:13.106Z,9.63
2022-08-07T13:34:34.126Z,5.10
2022-08-07T13:36:42.071Z,9.67
2022-08-07T13:39:28.426Z,5.63
2022-08-07T13:42:03.532Z,8.27
2022-08-07T13:44:34.462Z,5.80
2022-08-07T13:47:09.462Z,7.47
2022-08-07T13:50:35.198Z,6.50
2022-08-07T13:52:36.261Z,8.67
2022-08-07T13:55:11.218Z,5.47
2022-08-07T13:57:59.183Z,5.17
2022-08-07T14:00:33.501Z,6.00
2022-08-07T14:03:07.639Z,9.53
2022-08-07T14:05:37.503Z,5.83
2022-08-07T14:08:08.763Z,6.13
2022-08-07T14:10:42.071Z,6.27
2022-08-07T14:13:16.397Z,9.23
2022-08-07T14:15:50.824Z,7.37
2022-08-07T14:18:28.527Z,6.57
2022-08-07T14:21:11.761Z,4.97
2022-08-07T14:24:01.197Z,9.43
2022-08-07T14:26:38.159Z,16.33
2022-08-07T14:30:05.044Z,4.80
2022-08-07T14:32:02.094Z,5.00
2022-08-07T14:34:31.980Z,5.40
2022-08-07T14:37:03.287Z,4.20
2022-08-07T14:40:17.752Z,5.00
2022-08-07T14:42:27.547Z,5.60
2022-08-07T14:45:22.048Z,5.47
2022-08-07T14:50:45.472Z,4.77
2022-08-07T14:53:13.881Z,6.50
2022-08-07T14:55:55.925Z,6.53
2022-08-07T14:58:28.455Z,5.20
2022-08-07T15:01:00.129Z,4.70
2022-08-07T15:03:52.211Z,5.90
2022-08-07T15:06:23.421Z,6.20
2022-08-07T15:08:54.979Z,5.60
2022-08-07T15:14:17.617Z,5.70
2022-08-07T15:16:55.067Z,5.10
2022-08-07T15:20:30.292Z,5.07
2022-08-07T15:25:18.443Z,5.00
2022-08-07T15:31:05.115Z,5.30
2022-08-07T15:33:33.429Z,6.97
2022-08-07T15:36:06.634Z,5.60
2022-08-07T15:38:58.675Z,6.43
2022-08-07T15:42:46.952Z,3.80
2022-08-07T15:44:16.008Z,5.20
2022-08-07T15:46:51.829Z,5.63
2022-08-07T15:49:25.615Z,7.50
2022-08-07T15:52:13.838Z,5.10
2022-08-07T15:54:44.395Z,6.07
2022-08-07T15:57:28.248Z,6.17
2022-08-07T16:00:06.412Z,4.80
2022-08-07T16:02:39.932Z,6.30
2022-08-07T16:05:15.680Z,10.43
2022-08-07T16:08:31.290Z,4.53
2022-08-07T16:10:37.402Z,5.07
2022-08-07T16:13:58.357Z,5.00
2022-08-07T16:16:48.626Z,5.53
2022-08-07T16:19:42.063Z,4.80
2022-08-07T16:22:39.076Z,6.83
2022-08-07T16:25:54.982Z,6.03
2022-08-07T16:29:18.266Z,4.57
2022-08-07T16:31:50.990Z,5.33
2022-08-07T16:34:28.285Z,4.73
2022-08-07T16:38:03.012Z,10.87
2022-08-07T16:40:16.386Z,4.77
2022-08-07T16:43:01.768Z,6.57
2022-08-07T16:46:33.515Z,6.43
2022-08-07T16:50:29.404Z,4.00
2022-08-07T16:52:51.396Z,4.77
2022-08-07T16:55:08.175Z,4.90
2022-08-07T16:58:02.598Z,9.33
2022-08-07T17:00:40.971Z,7.57
2022-08-07T17:03:17.880Z,5.03
2022-08-07T17:06:19.184Z,4.70
2022-08-07T17:09:08.824Z,4.60
2022-08-07T17:12:03.879Z,4.47
2022-08-07T17:14:24.912Z,5.77
2022-08-07T17:16:57.339Z,4.40
2022-08-07T17:20:01.095Z,4.40
2022-08-07T17:22:36.415Z,4.97
2022-08-07T17:25:11.608Z,7.43
2022-08-07T17:27:52.041Z,4.90
2022-08-07T17:30:28.649Z,5.00
2022-08-07T17:34:09.143Z,7.57
2022-08-07T17:36:00.205Z,4.33
2022-08-07T17:38:34.266Z,5.00
2022-08-07T17:42:00.650Z,5.60
2022-08-07T17:44:02.793Z,8.40
2022-08-07T17:46:40.298Z,3.90
2022-08-07T17:49:11.626Z,4.37
2022-08-07T17:52:00.790Z,6.27
2022-08-07T17:54:53.186Z,4.90
2022-08-07T17:57:55.956Z,4.27
2022-08-07T18:00:32.923Z,5.63
2022-08-07T18:03:11.165Z,4.47
2022-08-07T18:06:01.737Z,6.37
2022-08-07T18:08:54.244Z,4.17
2022-08-07T18:12:16.637Z,6.50
2022-08-07T18:14:24.141Z,4.53
2022-08-07T18:16:58.216Z,5.83
2022-08-07T18:21:06.520Z,5.70
2022-08-07T18:22:26.408Z,7.83
2022-08-07T18:25:01.501Z,4.73
2022-08-07T18:27:38.811Z,5.23
2022-08-07T18:30:31.098Z,4.20
2022-08-07T18:33:55.140Z,4.83
2022-08-07T18:36:33.209Z,7.90
2022-08-07T18:40:06.483Z,4.47
2022-08-07T18:42:08.522Z,5.83
2022-08-07T18:47:44.815Z,7.67
2022-08-07T18:50:38.592Z,5.97
2022-08-07T18:53:36.987Z,10.03
2022-08-07T18:56:13.833Z,5.57
2022-08-07T18:58:52.597Z,5.90
2022-08-07T19:02:31.780Z,5.77
2022-08-07T19:04:32.205Z,7.43
2022-08-07T19:07:09.625Z,5.27
2022-08-07T19:09:57.753Z,7.20
2022-08-07T19:12:33.312Z,6.73
2022-08-07T19:16:02.890Z,6.83
2022-08-07T19:18:14.355Z,5.73
2022-08-07T19:21:09.397Z,11.60
2022-08-07T19:23:58.268Z,11.63
2022-08-07T19:26:55.599Z,6.07
2022-08-07T19:31:03.822Z,9.40
2022-08-07T19:32:26.089Z,6.40
2022-08-07T19:35:01.568Z,5.43
2022-08-07T19:37:55.398Z,5.43
2022-08-07T19:40:31.039Z,5.30
2022-08-07T19:43:02.317Z,6.13
2022-08-07T19:46:06.183Z,6.77
2022-08-07T19:48:24.853Z,9.57
2022-08-07T19:50:54.365Z,6.23
2022-08-07T19:54:31.355Z,8.00
2022-08-07T19:57:52.328Z,8.37
2022-08-07T19:59:02.584Z,8.23
2022-08-07T20:01:52.414Z,6.57
2022-08-07T20:04:32.336Z,7.93
2022-08-07T20:07:08.889Z,7.90
2022-08-07T20:10:33.662Z,9.33
2022-08-07T20:12:35.881Z,7.60
2022-08-07T20:15:15.515Z,7.97
2022-08-07T20:17:56.220Z,5.87
2022-08-07T20:20:31.677Z,7.10
2022-08-07T20:23:10.789Z,7.20
2022-08-07T20:25:53.135Z,6.73
2022-08-07T20:28:29.330Z,7.07
2022-08-07T20:31:00.281Z,9.30
2022-08-07T20:33:38.169Z,8.80
2022-08-07T20:36:08.081Z,11.27
2022-08-07T20:38:59.316Z,7.93
2022-08-07T20:41:27.575Z,9.30
2022-08-07T20:43:57.435Z,11.10
2022-08-07T20:46:32.198Z,8.77
2022-08-07T20:49:59.300Z,9.60
2022-08-07T20:51:51.233Z,9.43
2022-08-07T20:54:30.272Z,11.90
2022-08-07T20:57:04.082Z,8.73
2022-08-07T21:00:06.281Z,13.17
2022-08-07T21:02:55.165Z,10.17
2022-08-07T21:05:50.866Z,9.17
2022-08-07T21:08:18.016Z,10.27
2022-08-07T21:10:50.661Z,14.13
2022-08-07T21:13:24.495Z,12.40
2022-08-07T21:16:09.515Z,7.77
2022-08-07T21:18:40.586Z,8.00
2022-08-07T21:21:09.769Z,17.20
2022-08-07T21:23:50.443Z,12.77
2022-08-07T21:26:30.715Z,7.73
2022-08-07T21:29:00.952Z,9.00
2022-08-07T21:31:49.933Z,11.00
2022-08-07T21:34:32.652Z,7.97
2022-08-07T21:37:04.865Z,8.80
2022-08-07T21:39:45.956Z,13.87
2022-08-07T21:42:42.534Z,7.93
2022-08-07T21:46:07.806Z,11.20
2022-08-07T21:48:28.452Z,9.00
2022-08-07T21:51:19.938Z,10.40
2022-08-07T21:53:54.465Z,13.50
2022-08-07T21:56:36.646Z,8.40
2022-08-07T21:59:10.426Z,13.07
2022-08-07T22:02:11.283Z,11.27
2022-08-07T22:04:38.946Z,10.30
2022-08-07T22:07:13.307Z,11.50
2022-08-07T22:09:54.463Z,8.07
2022-08-07T22:12:27.126Z,8.97
2022-08-07T22:16:39.868Z,9.30
2022-08-07T22:17:57.770Z,11.67
2022-08-07T22:20:32.785Z,11.00
2022-08-07T22:23:09.134Z,9.53
2022-08-07T22:25:42.259Z,13.43
2022-08-07T22:28:32.251Z,17.73
2022-08-07T22:31:06.667Z,8.47
2022-08-07T22:33:56.711Z,9.60
2022-08-07T22:36:32.752Z,11.43
2022-08-07T22:39:05.239Z,18.00
2022-08-07T22:42:03.737Z,9.57
2022-08-07T22:44:29.010Z,11.93
2022-08-07T22:47:35.568Z,9.30
2022-08-07T22:50:28.846Z,15.10
2022-08-07T22:54:07.001Z,8.90
2022-08-07T22:56:17.457Z,10.50
2022-08-07T22:58:55.411Z,12.57
2022-08-07T23:01:49.467Z,18.70
2022-08-07T23:04:34.133Z,10.40
2022-08-07T23:07:40.276Z,10.20
2022-08-07T23:10:37.600Z,19.57
2022-08-07T23:13:08.488Z,13.70
2022-08-07T23:16:06.618Z,10.20
2022-08-07T23:18:43.877Z,10.37
2022-08-07T23:21:30.065Z,10.10
2022-08-07T23:24:31.683Z,12.40
2022-08-07T23:27:33.764Z,9.63
2022-08-07T23:30:37.524Z,10.73
2022-08-07T23:34:35.434Z,10.73
2022-08-07T23:36:05.354Z,10.90
2022-08-07T23:38:42.811Z,12.07
2022-08-07T23:41:22.161Z,9.67
2022-08-07T23:44:04.034Z,10.00
2022-08-07T23:47:14.192Z,9.80
2022-08-07T23:50:05.384Z,9.23
2022-08-07T23:52:58.477Z,9.87
2022-08-07T23:55:52.465Z,12.10
2022-08-07T23:58:25.175Z,13.10
